Time;durP1;ratioP1;P1;durP2;ratioP2;P2;SDS_P1;SDS_P2;PMS_P1;PMS_P2;Temp;Humidity;BMP_temperature;BMP_pressure;BME280_temperature;BME280_humidity;BME280_pressure;Samples;Min_cycle;Max_cycle;Signal;HPM_P1;HPM_P2
2021/01/26 00:00:34;;;;;;;28.63;24.20;;;;;;;0.54;81.82;99776.94;4985941;28;20262;-77
2021/01/26 00:03:00;;;;;;;32.83;24.60;;;;;;;0.55;82.01;99776.06;4984711;28;20672;-77
2021/01/26 00:05:26;;;;;;;31.47;24.00;;;;;;;0.60;81.91;99771.00;4979563;28;20618;-77
2021/01/26 00:07:52;;;;;;;29.47;23.87;;;;;;;0.62;80.86;99777.00;4983404;28;20667;-77
2021/01/26 00:10:18;;;;;;;27.03;24.13;;;;;;;0.63;81.55;99773.59;4985013;28;20260;-77
2021/01/26 00:12:44;;;;;;;26.57;23.77;;;;;;;0.69;81.61;99773.66;4979652;28;20266;-78
2021/01/26 00:15:11;;;;;;;26.50;22.90;;;;;;;0.59;81.50;99769.25;4981853;28;20208;-77
2021/01/26 00:17:37;;;;;;;27.43;23.17;;;;;;;0.56;81.63;99774.38;4982064;28;20662;-77
2021/01/26 00:20:04;;;;;;;29.03;23.83;;;;;;;0.62;81.87;99769.31;4987274;28;20263;-78
2021/01/26 00:22:30;;;;;;;28.27;22.27;;;;;;;0.53;81.70;99772.63;4982329;28;20250;-77
2021/01/26 00:24:56;;;;;;;25.50;22.90;;;;;;;0.64;81.95;99761.63;4981039;28;20231;-77
2021/01/26 00:27:22;;;;;;;27.40;23.83;;;;;;;0.61;81.66;99764.16;4985365;28;20255;-77
2021/01/26 00:29:48;;;;;;;27.63;22.33;;;;;;;0.68;81.98;99761.66;4990248;28;20266;-77
2021/01/26 00:32:14;;;;;;;26.97;22.67;;;;;;;0.69;80.96;99759.94;4984966;28;20200;-77
2021/01/26 00:34:40;;;;;;;24.33;21.77;;;;;;;0.80;81.06;99768.63;4983148;28;20211;-78
2021/01/26 00:37:05;;;;;;;22.73;20.53;;;;;;;0.86;81.12;99758.41;4982180;28;20205;-77
2021/01/26 00:39:32;;;;;;;24.03;21.63;;;;;;;0.84;80.40;99762.69;4990091;28;20701;-77
2021/01/26 00:41:58;;;;;;;22.23;19.93;;;;;;;0.88;80.42;99755.88;4986949;28;20250;-77
2021/01/26 00:44:24;;;;;;;25.20;22.47;;;;;;;0.83;80.63;99763.50;4981591;28;20760;-77
2021/01/26 00:46:50;;;;;;;23.53;21.00;;;;;;;0.85;81.11;99758.38;4981180;28;20212;-77
2021/01/26 00:49:16;;;;;;;22.80;20.43;;;;;;;0.83;79.90;99758.38;4984594;28;20223;-77
2021/01/26 00:51:41;;;;;;;22.90;19.93;;;;;;;0.81;79.57;99751.50;4989417;28;20203;-77
2021/01/26 00:54:08;;;;;;;20.03;18.20;;;;;;;0.85;79.68;99750.69;4980320;28;20607;-78
2021/01/26 00:56:35;;;;;;;20.83;18.83;;;;;;;0.74;79.63;99748.88;4982710;28;20259;-77
2021/01/26 00:59:00;;;;;;;21.23;19.03;;;;;;;0.76;80.35;99742.03;4981517;28;20249;-77
2021/01/26 01:01:26;;;;;;;18.77;16.77;;;;;;;0.71;79.34;99743.69;4990858;28;20207;-77
2021/01/26 01:03:52;;;;;;;20.00;17.23;;;;;;;0.82;79.53;99741.25;4981314;28;20751;-77
2021/01/26 01:06:18;;;;;;;18.57;16.67;;;;;;;0.79;79.44;99741.22;4990676;28;20688;-78
2021/01/26 01:08:44;;;;;;;20.73;17.70;;;;;;;0.87;80.18;99738.72;4992037;28;20227;-78
2021/01/26 01:11:11;;;;;;;18.00;16.10;;;;;;;0.86;79.35;99734.44;4991885;28;20203;-78
2021/01/26 01:13:38;;;;;;;17.70;15.57;;;;;;;0.78;79.29;99734.38;4981409;28;20214;-77
2021/01/26 01:16:04;;;;;;;18.40;16.70;;;;;;;0.77;79.44;99730.06;4982954;28;20215;-77
2021/01/26 01:18:30;;;;;;;19.03;17.20;;;;;;;0.78;80.08;99727.50;4984293;28;20220;-77
2021/01/26 01:20:56;;;;;;;17.70;16.13;;;;;;;0.77;79.80;99733.50;4979017;28;20302;-77
2021/01/26 01:23:22;;;;;;;17.40;15.70;;;;;;;0.82;80.11;99728.41;4976164;28;20220;-77
2021/01/26 01:25:48;;;;;;;17.33;15.77;;;;;;;0.84;80.01;99733.56;4989781;28;20737;-77
2021/01/26 01:28:13;;;;;;;20.47;17.10;;;;;;;0.81;81.66;99729.22;4976542;28;20235;-78
2021/01/26 01:30:40;;;;;;;17.80;16.20;;;;;;;0.85;82.10;99733.56;4984927;28;20239;-77
2021/01/26 01:33:06;;;;;;;19.37;17.47;;;;;;;0.87;82.44;99731.84;4977212;28;20208;-77
2021/01/26 01:35:32;;;;;;;24.70;18.00;;;;;;;0.95;82.82;99734.50;4985951;28;20674;-78
2021/01/26 01:37:58;;;;;;;20.50;18.40;;;;;;;0.89;83.60;99726.75;4981251;28;20208;-78
2021/01/26 01:40:27;;;;;;;18.87;17.03;;;;;;;0.96;82.89;99729.38;4988556;28;20761;-77
2021/01/26 01:42:53;;;;;;;17.87;16.07;;;;;;;1.02;82.88;99728.56;4978343;28;20200;-78
2021/01/26 01:45:22;;;;;;;19.30;17.33;;;;;;;1.07;83.29;99726.03;4988491;28;20268;-77
2021/01/26 01:47:52;;;;;;;17.77;15.97;;;;;;;0.98;82.61;99719.13;4979039;28;20207;-77
2021/01/26 01:50:24;;;;;;;16.70;15.27;;;;;;;0.97;82.72;99713.13;4989541;28;20235;-78
2021/01/26 01:52:56;;;;;;;18.37;16.53;;;;;;;0.96;82.66;99707.97;4979282;28;20208;-77
2021/01/26 01:55:23;;;;;;;18.83;17.00;;;;;;;0.97;83.21;99710.56;4990567;28;20215;-78
2021/01/26 01:57:53;;;;;;;17.67;15.97;;;;;;;1.01;83.19;99706.28;4980585;28;20235;-77
2021/01/26 02:00:21;;;;;;;17.97;16.37;;;;;;;0.99;82.84;99706.28;4986238;28;20223;-77
2021/01/26 02:02:58;;;;;;;16.57;14.83;;;;;;;1.06;82.02;99698.63;4983562;28;20212;-78
2021/01/26 02:05:24;;;;;;;18.50;16.67;;;;;;;1.09;82.35;99709.78;4988450;28;20207;-78
2021/01/26 02:07:55;;;;;;;16.47;15.07;;;;;;;1.13;81.60;99703.81;4989673;28;20207;-78
2021/01/26 02:10:22;;;;;;;17.07;15.57;;;;;;;1.08;82.35;99710.63;4990688;28;20231;-77
2021/01/26 02:12:47;;;;;;;15.70;14.47;;;;;;;1.11;81.71;99700.38;4984532;28;20666;-77
2021/01/26 02:15:14;;;;;;;16.90;15.50;;;;;;;0.96;82.08;99701.13;4990638;28;20285;-77
2021/01/26 02:17:50;;;;;;;15.90;14.43;;;;;;;1.00;82.29;99699.44;4979045;28;20200;-78
2021/01/26 02:21:03;;;;;;;16.70;15.00;;;;;;;1.03;82.22;99701.16;4990268;28;20387;-77
2021/01/26 02:24:01;;;;;;;15.43;14.03;;;;;;;0.93;82.19;99702.78;4975352;28;20228;-78
2021/01/26 02:26:52;;;;;;;15.23;13.83;;;;;;;0.83;81.63;99696.72;4976280;28;20200;-77
2021/01/26 02:29:25;;;;;;;17.27;15.73;;;;;;;0.76;82.35;99697.53;4990061;28;20257;-77
2021/01/26 02:32:04;;;;;;;17.77;16.20;;;;;;;0.78;82.34;99701.81;4976905;28;20207;-77
2021/01/26 02:34:57;;;;;;;16.77;15.17;;;;;;;0.81;82.34;99695.00;4983028;28;20287;-78
2021/01/26 02:38:00;;;;;;;16.40;14.97;;;;;;;0.86;82.25;99701.03;4986659;28;20267;-77
2021/01/26 02:40:33;;;;;;;16.60;14.87;;;;;;;0.95;82.62;99690.81;4986611;28;20234;-77
2021/01/26 02:43:26;;;;;;;17.50;15.80;;;;;;;0.99;82.37;99690.00;4977419;28;20207;-78
2021/01/26 02:45:59;;;;;;;17.67;16.17;;;;;;;1.05;81.56;99690.06;4987344;28;20196;-78
2021/01/26 02:48:35;;;;;;;16.13;14.73;;;;;;;1.09;82.13;99694.38;4975042;28;20208;-78
2021/01/26 02:51:05;;;;;;;15.47;14.07;;;;;;;1.02;81.28;99689.19;4984372;28;20204;-78
2021/01/26 02:53:38;;;;;;;16.83;15.30;;;;;;;1.04;82.24;99690.03;4978598;28;20587;-78
2021/01/26 02:56:14;;;;;;;17.37;15.83;;;;;;;1.02;82.21;99692.59;4988905;28;20796;-78
2021/01/26 02:58:47;;;;;;;16.00;14.60;;;;;;;1.07;81.45;99687.47;4977479;28;20231;-78
2021/01/26 03:01:13;;;;;;;17.33;15.63;;;;;;;1.05;81.76;99679.78;4987977;28;20204;-77
2021/01/26 03:03:46;;;;;;;15.13;13.90;;;;;;;1.05;81.54;99679.78;4978496;28;20219;-78
2021/01/26 03:06:17;;;;;;;15.90;14.47;;;;;;;1.12;81.29;99683.25;4990767;28;20219;-77
2021/01/26 03:08:50;;;;;;;15.97;14.67;;;;;;;1.08;81.21;99682.34;4992340;28;20224;-77
2021/01/26 03:11:22;;;;;;;17.43;15.93;;;;;;;0.95;80.84;99684.00;4984596;28;20225;-77
2021/01/26 03:13:53;;;;;;;16.40;15.00;;;;;;;1.04;80.72;99688.31;4983670;28;20199;-78
2021/01/26 03:16:20;;;;;;;16.93;15.33;;;;;;;1.06;81.09;99684.06;4984963;28;20658;-78
2021/01/26 03:18:50;;;;;;;17.43;15.93;;;;;;;1.05;82.24;99679.78;4990862;28;20220;-78
2021/01/26 03:21:18;;;;;;;16.70;15.10;;;;;;;1.11;82.06;99684.09;4974632;28;20251;-77
2021/01/26 03:23:48;;;;;;;16.63;15.10;;;;;;;1.11;81.99;99684.09;4978220;28;20228;-77
2021/01/26 03:26:19;;;;;;;16.33;14.93;;;;;;;1.16;82.47;99685.00;4977854;28;20204;-77
2021/01/26 03:28:50;;;;;;;17.67;15.87;;;;;;;1.11;82.04;99684.97;4991677;28;20228;-77
2021/01/26 03:31:18;;;;;;;17.57;16.17;;;;;;;0.92;82.81;99685.66;4978834;28;20195;-78
2021/01/26 03:33:48;;;;;;;18.13;16.33;;;;;;;0.97;83.16;99694.25;4978319;28;20204;-78
2021/01/26 03:36:14;;;;;;;16.67;15.27;;;;;;;1.06;83.71;99693.50;4980596;28;20203;-77
2021/01/26 03:38:41;;;;;;;18.73;17.10;;;;;;;1.06;82.97;99684.06;4982810;28;20231;-77
2021/01/26 03:41:07;;;;;;;16.83;15.33;;;;;;;0.99;83.86;99679.72;4988064;28;20206;-78
2021/01/26 03:43:33;;;;;;;18.03;16.23;;;;;;;0.97;84.06;99689.13;4982926;28;20223;-77
2021/01/26 03:46:09;;;;;;;19.00;17.20;;;;;;;1.02;84.66;99681.47;4985483;28;20250;-77
2021/01/26 03:48:49;;;;;;;17.30;15.73;;;;;;;0.99;84.53;99682.28;4975684;28;20266;-77
2021/01/26 03:51:29;;;;;;;17.47;15.83;;;;;;;1.04;83.92;99682.34;4983536;28;20203;-77
2021/01/26 03:54:12;;;;;;;16.40;15.07;;;;;;;1.04;84.84;99678.06;4980025;28;20715;-77
2021/01/26 03:57:10;;;;;;;18.23;16.50;;;;;;;1.01;84.43;99675.44;4984490;28;20203;-77
2021/01/26 03:59:51;;;;;;;15.90;14.60;;;;;;;1.03;84.44;99670.31;4971720;28;20235;-78
2021/01/26 04:02:23;;;;;;;16.80;15.40;;;;;;;1.01;85.00;99675.44;4978719;28;20208;-77
2021/01/26 04:04:56;;;;;;;16.70;15.23;;;;;;;1.03;84.66;99672.88;4987954;28;20327;-77
2021/01/26 04:07:30;;;;;;;17.70;16.13;;;;;;;1.08;84.75;99673.78;4983161;28;20570;-77
2021/01/26 04:10:00;;;;;;;18.17;16.40;;;;;;;1.11;83.79;99674.69;4986569;28;20231;-77
2021/01/26 04:12:32;;;;;;;17.60;15.93;;;;;;;1.10;84.44;99674.66;4984412;28;20200;-78
2021/01/26 04:15:01;;;;;;;16.63;15.20;;;;;;;1.08;84.30;99674.66;4983897;28;20211;-77
2021/01/26 04:17:31;;;;;;;17.33;15.63;;;;;;;1.12;83.51;99678.97;4985347;28;20200;-77
2021/01/26 04:20:03;;;;;;;16.87;15.40;;;;;;;1.12;83.76;99675.53;4985079;28;20239;-77
2021/01/26 04:22:29;;;;;;;18.07;16.53;;;;;;;1.08;83.53;99678.94;4985219;28;20667;-77
2021/01/26 04:24:55;;;;;;;17.33;15.87;;;;;;;1.01;84.10;99675.44;4985551;28;20227;-77
2021/01/26 04:27:23;;;;;;;16.20;14.80;;;;;;;1.06;84.48;99671.22;4987371;28;20263;-77
2021/01/26 04:29:49;;;;;;;15.60;14.30;;;;;;;1.07;84.26;99675.50;4989339;28;20238;-77
2021/01/26 04:32:16;;;;;;;15.33;13.93;;;;;;;1.10;84.33;99672.94;4988781;28;20204;-76
2021/01/26 04:34:43;;;;;;;15.57;14.27;;;;;;;1.12;83.64;99672.97;4979909;28;20208;-77
2021/01/26 04:37:09;;;;;;;15.17;13.97;;;;;;;1.13;83.70;99678.13;4978475;28;20270;-76
2021/01/26 04:39:35;;;;;;;14.47;13.17;;;;;;;1.11;84.32;99679.81;4979323;28;20224;-77
2021/01/26 04:42:07;;;;;;;13.60;12.50;;;;;;;1.13;83.86;99675.56;4973398;28;20208;-77
2021/01/26 04:45:01;;;;;;;13.80;12.70;;;;;;;1.07;84.79;99684.91;4989031;28;20600;-77
2021/01/26 04:47:35;;;;;;;13.87;12.70;;;;;;;1.11;84.59;99682.41;4980550;28;20208;-77
2021/01/26 04:50:13;;;;;;;13.83;12.63;;;;;;;1.12;84.75;99684.09;4981572;28;20291;-77
2021/01/26 04:53:02;;;;;;;13.43;12.33;;;;;;;1.13;84.43;99685.84;4973684;28;20199;-77
2021/01/26 04:55:38;;;;;;;15.70;14.20;;;;;;;1.11;84.94;99681.50;4982880;28;20571;-77
2021/01/26 04:58:16;;;;;;;14.67;13.47;;;;;;;1.12;84.68;99688.38;4978119;28;20208;-76
2021/01/26 05:00:54;;;;;;;13.50;12.40;;;;;;;1.08;84.33;99686.66;4986486;28;20729;-77
2021/01/26 05:03:33;;;;;;;14.30;13.10;;;;;;;1.06;84.15;99689.19;4976613;28;20207;-76
2021/01/26 05:06:02;;;;;;;13.50;12.40;;;;;;;1.08;84.43;99689.22;4986657;28;20204;-77
2021/01/26 05:08:33;;;;;;;12.50;11.50;;;;;;;1.08;83.98;99692.63;4981849;28;20709;-77
2021/01/26 05:11:04;;;;;;;13.53;11.97;;;;;;;1.09;84.24;99696.94;4981482;28;20199;-77
2021/01/26 05:13:35;;;;;;;12.97;11.87;;;;;;;1.12;84.10;99703.81;4976722;28;20208;-77
2021/01/26 05:16:07;;;;;;;12.73;11.63;;;;;;;1.14;84.17;99702.97;4986659;28;20208;-77
2021/01/26 05:18:38;;;;;;;13.77;12.57;;;;;;;1.14;84.64;99695.25;4980907;28;20792;-78
2021/01/26 05:21:08;;;;;;;12.30;11.30;;;;;;;1.14;84.10;99692.69;4986772;28;20279;-77
2021/01/26 05:23:41;;;;;;;12.07;11.07;;;;;;;1.13;84.39;99695.22;4982853;28;20798;-77
2021/01/26 05:26:08;;;;;;;12.43;11.43;;;;;;;1.11;84.10;99699.50;4989231;28;20230;-77
2021/01/26 05:28:35;;;;;;;12.13;11.13;;;;;;;1.09;84.17;99702.09;4983343;28;20303;-78
2021/01/26 05:31:07;;;;;;;13.03;11.93;;;;;;;1.09;84.94;99708.91;4988744;28;20200;-77
2021/01/26 05:33:35;;;;;;;12.23;11.23;;;;;;;1.10;84.91;99702.94;4984982;28;20611;-78
2021/01/26 05:36:03;;;;;;;12.80;11.80;;;;;;;1.03;84.25;99702.03;4990399;28;20258;-78
2021/01/26 05:38:30;;;;;;;12.40;11.37;;;;;;;1.10;84.42;99711.50;4985730;28;20223;-77
2021/01/26 05:41:00;;;;;;;12.03;11.03;;;;;;;1.11;84.43;99720.06;4985831;28;20670;-76
2021/01/26 05:43:29;;;;;;;12.20;11.20;;;;;;;1.06;85.24;99721.75;4985854;28;20201;-77
2021/01/26 05:45:57;;;;;;;11.17;10.27;;;;;;;1.00;84.89;99717.41;4988460;28;20584;-77
2021/01/26 05:48:24;;;;;;;11.67;10.70;;;;;;;0.94;85.14;99728.50;4984689;28;20892;-76
2021/01/26 05:50:52;;;;;;;9.83;9.13;;;;;;;0.86;85.77;99737.00;4985514;28;20205;-76
2021/01/26 05:53:24;;;;;;;10.50;9.63;;;;;;;0.89;86.29;99732.75;4982734;28;20607;-77
2021/01/26 05:55:59;;;;;;;9.57;8.77;;;;;;;0.87;86.37;99738.72;4986286;28;20208;-76
2021/01/26 05:58:28;;;;;;;9.87;9.07;;;;;;;0.94;86.20;99746.50;4982225;28;20200;-76
2021/01/26 06:00:57;;;;;;;9.03;8.33;;;;;;;1.01;86.78;99747.41;4987144;28;20733;-76
2021/01/26 06:03:22;;;;;;;9.73;8.93;;;;;;;1.11;85.55;99746.66;4983018;28;20200;-76
2021/01/26 06:06:00;;;;;;;11.13;10.23;;;;;;;1.06;85.82;99755.16;4986872;28;20681;-76
2021/01/26 06:08:26;;;;;;;9.53;8.70;;;;;;;0.95;86.87;99755.94;4987351;28;20191;-76
2021/01/26 06:10:53;;;;;;;11.37;10.37;;;;;;;1.05;86.58;99762.03;4986235;28;20203;-77
2021/01/26 06:13:25;;;;;;;12.33;11.33;;;;;;;1.09;86.33;99760.31;4981508;28;20243;-76
2021/01/26 06:16:06;;;;;;;10.87;10.00;;;;;;;1.08;86.64;99763.75;4989601;28;20203;-76
2021/01/26 06:18:32;;;;;;;60.43;42.10;;;;;;;1.15;86.58;99771.53;4981945;28;20219;-76
2021/01/26 06:21:04;;;;;;;54.33;39.37;;;;;;;1.13;88.09;99777.47;4988552;28;20752;-76
2021/01/26 06:23:31;;;;;;;66.20;44.13;;;;;;;1.43;89.36;99782.03;4983859;28;20564;-76
2021/01/26 06:26:01;;;;;;;11.53;10.53;;;;;;;1.08;88.49;99792.00;4984084;28;20661;-76
2021/01/26 06:28:38;;;;;;;9.67;8.83;;;;;;;0.60;88.49;99799.25;4981152;28;20283;-75
2021/01/26 06:31:13;;;;;;;12.43;11.27;;;;;;;0.69;89.09;99793.34;4986636;28;20207;-75
2021/01/26 06:33:54;;;;;;;10.20;9.40;;;;;;;0.73;89.71;99801.13;4983857;28;20692;-77
2021/01/26 06:36:38;;;;;;;10.40;9.50;;;;;;;0.62;89.70;99809.53;4979229;28;20200;-77
2021/01/26 06:39:21;;;;;;;14.03;12.80;;;;;;;0.59;89.71;99813.81;4983867;28;20304;-77
2021/01/26 06:42:01;;;;;;;12.97;11.87;;;;;;;0.50;89.78;99823.09;4981434;28;20208;-77
2021/01/26 06:44:41;;;;;;;11.80;10.80;;;;;;;0.37;90.42;99812.66;4984916;28;20286;-77
2021/01/26 06:47:26;;;;;;;13.40;12.27;;;;;;;0.50;90.65;99826.53;4980972;28;20195;-77
2021/01/26 06:50:00;;;;;;;14.37;12.97;;;;;;;0.42;90.59;99833.28;4987392;28;20223;-77
2021/01/26 06:52:37;;;;;;;14.63;13.20;;;;;;;0.28;90.81;99832.22;4980502;28;20204;-77
2021/01/26 06:55:27;;;;;;;15.00;13.60;;;;;;;0.23;91.06;99850.13;4987165;28;20199;-76
2021/01/26 06:58:06;;;;;;;15.13;13.67;;;;;;;0.26;91.42;99845.06;4983722;28;20195;-77
2021/01/26 07:00:54;;;;;;;16.63;15.13;;;;;;;0.13;91.44;99859.41;4987071;28;20223;-78
2021/01/26 07:03:57;;;;;;;16.60;15.00;;;;;;;0.08;92.14;99865.31;4982008;28;20199;-77
2021/01/26 07:06:54;;;;;;;18.53;16.60;;;;;;;-0.02;92.58;99870.34;4988279;28;20200;-78
2021/01/26 07:09:38;;;;;;;21.87;18.13;;;;;;;-0.08;92.33;99885.63;4990343;28;20223;-78
2021/01/26 07:12:25;;;;;;;24.30;19.03;;;;;;;-0.11;93.25;99885.56;4979897;28;20205;-77
2021/01/26 07:15:09;;;;;;;24.27;18.83;;;;;;;-0.14;93.29;99894.94;4988813;28;20733;-78
2021/01/26 07:17:45;;;;;;;24.77;19.90;;;;;;;-0.10;93.25;99901.81;4985410;28;20236;-77
2021/01/26 07:20:22;;;;;;;26.77;19.33;;;;;;;-0.08;93.19;99905.28;4987967;28;20239;-77
2021/01/26 07:23:00;;;;;;;23.37;19.23;;;;;;;-0.08;93.52;99918.09;4986629;28;20200;-77
2021/01/26 07:25:31;;;;;;;22.93;19.23;;;;;;;-0.10;93.33;99920.66;4993480;28;20219;-77
2021/01/26 07:28:23;;;;;;;26.90;20.97;;;;;;;-0.10;93.13;99930.94;4982576;28;20235;-77
2021/01/26 07:30:54;;;;;;;26.13;21.37;;;;;;;-0.06;93.61;99939.50;4985799;28;20263;-77
2021/01/26 07:33:28;;;;;;;25.83;20.10;;;;;;;-0.09;93.47;99935.19;4980900;28;20206;-77
2021/01/26 07:36:02;;;;;;;30.33;22.23;;;;;;;-0.09;93.51;99958.28;4989643;28;20210;-76
2021/01/26 07:38:34;;;;;;;28.93;20.17;;;;;;;-0.11;93.71;99961.69;4989788;28;20203;-77
2021/01/26 07:41:04;;;;;;;33.43;23.07;;;;;;;-0.09;93.44;99970.25;4982177;28;20200;-77
2021/01/26 07:43:38;;;;;;;32.33;21.57;;;;;;;-0.09;93.55;99967.69;4979977;28;20206;-78
2021/01/26 07:46:13;;;;;;;33.17;23.20;;;;;;;-0.03;93.65;99980.63;4985666;28;20201;-77
2021/01/26 07:48:46;;;;;;;33.20;22.10;;;;;;;-0.01;93.81;99984.94;4976691;28;20328;-76
2021/01/26 07:51:19;;;;;;;40.43;24.67;;;;;;;0.10;93.18;100000.53;4986331;28;20203;-77
2021/01/26 07:53:52;;;;;;;31.67;22.23;;;;;;;0.22;93.33;100005.00;4982554;28;20210;-78
2021/01/26 07:56:22;;;;;;;30.53;22.00;;;;;;;0.30;92.76;100007.69;4985855;28;20543;-77
2021/01/26 07:58:48;;;;;;;29.13;21.63;;;;;;;0.36;92.87;100016.31;4981556;28;20227;-78
2021/01/26 08:01:19;;;;;;;32.83;22.97;;;;;;;0.26;91.77;100011.91;4986811;28;20203;-77
2021/01/26 08:03:46;;;;;;;33.77;23.10;;;;;;;0.33;91.85;100017.97;4983300;28;20207;-78
2021/01/26 08:06:53;;;;;;;39.37;24.87;;;;;;;0.38;91.75;100019.78;4985837;28;20682;-78
2021/01/26 08:09:23;;;;;;;34.70;22.23;;;;;;;0.44;91.42;100020.69;4988566;28;20425;-78
2021/01/26 08:11:54;;;;;;;40.70;24.60;;;;;;;0.36;91.98;100018.03;4980867;28;20254;-77
2021/01/26 08:14:26;;;;;;;44.80;24.90;;;;;;;0.24;91.98;100034.09;4984651;28;20204;-78
2021/01/26 08:16:55;;;;;;;39.23;25.07;;;;;;;0.26;92.54;100029.84;4984831;28;20230;-77
2021/01/26 08:19:26;;;;;;;45.40;25.57;;;;;;;0.27;91.82;100028.16;4985921;28;20295;-77
2021/01/26 08:21:55;;;;;;;45.70;25.00;;;;;;;0.32;92.44;100031.66;4982132;28;20200;-77
2021/01/26 08:24:32;;;;;;;46.83;25.33;;;;;;;0.39;92.17;100036.91;4984934;28;20223;-76
2021/01/26 08:27:30;;;;;;;42.93;25.00;;;;;;;0.39;92.03;100036.03;4983150;28;20589;-78
2021/01/26 08:29:57;;;;;;;46.43;25.27;;;;;;;0.32;92.36;100035.09;4983098;28;20584;-78
2021/01/26 08:32:46;;;;;;;49.23;25.50;;;;;;;0.34;91.75;100042.81;4987597;28;20681;-77
2021/01/26 08:35:34;;;;;;;46.00;24.87;;;;;;;0.37;91.74;100055.69;4992926;28;20210;-77
2021/01/26 08:38:03;;;;;;;37.00;22.00;;;;;;;0.33;91.92;100056.47;4983147;28;20199;-77
2021/01/26 08:41:04;;;;;;;46.13;23.37;;;;;;;0.28;91.99;100063.22;4989014;28;20230;-77
2021/01/26 08:43:42;;;;;;;36.23;22.43;;;;;;;0.32;91.36;100067.59;4978183;28;20200;-77
2021/01/26 08:46:08;;;;;;;30.83;21.23;;;;;;;0.44;91.69;100072.03;4990458;28;20632;-77
2021/01/26 08:48:34;;;;;;;34.37;21.77;;;;;;;0.36;91.22;100085.63;4986025;28;20234;-78
2021/01/26 08:51:14;;;;;;;38.20;22.60;;;;;;;0.43;91.07;100088.31;4992071;28;20205;-77
2021/01/26 08:53:41;;;;;;;29.90;20.53;;;;;;;0.40;90.90;100104.53;4988958;28;20212;-78
2021/01/26 08:56:34;;;;;;;29.30;19.80;;;;;;;0.55;91.05;100111.59;4993502;28;20226;-78
2021/01/26 08:59:01;;;;;;;31.37;20.77;;;;;;;0.62;90.47;100116.03;4989271;28;20229;-77
2021/01/26 09:01:39;;;;;;;30.87;19.70;;;;;;;0.53;90.29;100118.44;4996550;28;20203;-79
2021/01/26 09:04:40;;;;;;;32.63;22.13;;;;;;;0.42;90.46;100127.63;4989399;28;20226;-79
2021/01/26 09:07:06;;;;;;;35.97;22.70;;;;;;;0.42;90.74;100137.91;4987353;28;20192;-77
2021/01/26 09:10:01;;;;;;;47.20;25.20;;;;;;;0.45;91.54;100137.97;4990508;28;20237;-77
2021/01/26 09:12:27;;;;;;;43.47;23.43;;;;;;;0.48;91.28;100150.88;4942909;28;20204;-79
2021/01/26 09:14:58;;;;;;;43.07;25.43;;;;;;;0.43;90.88;100147.34;4990144;28;20259;-78
2021/01/26 09:17:28;;;;;;;43.30;23.90;;;;;;;0.32;91.37;100154.88;4987710;28;20224;-79
2021/01/26 09:19:57;;;;;;;43.40;23.03;;;;;;;0.42;91.25;100158.44;4992484;28;20653;-79
2021/01/26 09:22:27;;;;;;;47.30;24.83;;;;;;;0.54;91.54;100163.81;4990693;28;20202;-78
2021/01/26 09:25:00;;;;;;;44.30;25.20;;;;;;;0.51;90.85;100172.31;4992636;28;20228;-78
2021/01/26 09:27:32;;;;;;;51.90;26.33;;;;;;;0.53;91.04;100174.91;4989169;28;20200;-78
2021/01/26 09:30:16;;;;;;;58.63;28.80;;;;;;;0.49;91.58;100175.72;4992215;28;20220;-78
2021/01/26 09:32:46;;;;;;;54.47;26.67;;;;;;;0.54;91.36;100174.94;4984692;28;20674;-78
2021/01/26 09:35:26;;;;;;;54.60;27.43;;;;;;;0.48;90.73;100181.69;4987516;28;20724;-78
2021/01/26 09:38:05;;;;;;;56.80;28.03;;;;;;;0.55;91.31;100183.50;4983873;28;20724;-78
2021/01/26 09:40:31;;;;;;;57.27;27.53;;;;;;;0.48;91.36;100179.97;4993670;28;20230;-78
2021/01/26 09:43:08;;;;;;;61.33;28.93;;;;;;;0.48;91.84;100179.97;4985705;28;20219;-79
2021/01/26 09:45:33;;;;;;;63.13;28.47;;;;;;;0.54;91.09;100181.81;4990109;28;20235;-79
2021/01/26 09:47:59;;;;;;;55.43;28.60;;;;;;;0.58;90.88;100183.59;4982995;28;20690;-78
2021/01/26 09:50:28;;;;;;;62.23;30.80;;;;;;;0.57;90.82;100185.25;4989314;28;20264;-77
2021/01/26 09:52:57;;;;;;;63.93;27.87;;;;;;;0.57;91.17;100202.38;4984518;28;20199;-77
2021/01/26 09:55:24;;;;;;;61.97;30.40;;;;;;;0.61;90.74;100199.03;4989746;28;20200;-78
2021/01/26 09:57:55;;;;;;;62.37;29.13;;;;;;;0.54;91.08;100208.34;4986970;28;20206;-78
2021/01/26 10:00:25;;;;;;;67.93;31.73;;;;;;;0.45;91.55;100215.88;4988988;28;20224;-78
2021/01/26 10:02:56;;;;;;;65.97;31.13;;;;;;;0.62;91.47;100215.31;4980891;28;20200;-78
2021/01/26 10:05:24;;;;;;;65.77;31.30;;;;;;;0.64;91.41;100221.34;4989678;28;20238;-79
2021/01/26 10:08:13;;;;;;;76.60;33.37;;;;;;;0.58;91.20;100234.94;4983213;28;20666;-76
2021/01/26 10:10:40;;;;;;;71.73;33.33;;;;;;;0.64;91.28;100224.78;4988880;28;20274;-76
2021/01/26 10:13:24;;;;;;;76.83;33.60;;;;;;;0.61;91.26;100241.84;4986015;28;20227;-76
2021/01/26 10:15:50;;;;;;;83.53;33.47;;;;;;;0.48;91.70;100241.63;4991452;28;20210;-78
2021/01/26 10:18:19;;;;;;;81.07;35.07;;;;;;;0.42;91.53;100245.75;4985004;28;20204;-78
2021/01/26 10:21:00;;;;;;;88.33;35.60;;;;;;;0.33;92.14;100241.31;4990728;28;20274;-76
2021/01/26 10:23:30;;;;;;;84.13;34.67;;;;;;;0.47;91.82;100245.00;4988012;28;20214;-78
2021/01/26 10:26:08;;;;;;;84.50;33.77;;;;;;;0.58;91.86;100256.34;4994048;28;20278;-77
2021/01/26 10:28:35;;;;;;;79.53;35.50;;;;;;;0.57;91.70;100251.19;4984713;28;20246;-78
2021/01/26 10:31:02;;;;;;;81.83;35.13;;;;;;;0.42;91.90;100262.03;4988423;28;20280;-79
2021/01/26 10:33:33;;;;;;;83.83;37.53;;;;;;;0.37;92.29;100268.78;4984499;28;20212;-77
2021/01/26 10:36:23;;;;;;;87.87;36.30;;;;;;;0.36;91.81;100270.47;4979568;28;20204;-77
2021/01/26 10:38:49;;;;;;;82.20;35.43;;;;;;;0.47;92.04;100270.69;4985943;28;20305;-77
2021/01/26 10:41:21;;;;;;;79.07;33.57;;;;;;;0.28;92.76;100274.59;4979785;28;20710;-77
2021/01/26 10:43:48;;;;;;;82.40;35.40;;;;;;;0.29;92.29;100278.03;4986353;28;20207;-77
2021/01/26 10:46:29;;;;;;;88.47;36.30;;;;;;;0.23;92.28;100275.34;4981704;28;20200;-77
2021/01/26 10:49:09;;;;;;;84.77;35.70;;;;;;;0.16;92.68;100290.63;4985070;28;20281;-77
2021/01/26 10:51:37;;;;;;;86.27;35.57;;;;;;;0.18;93.04;100286.38;4982783;28;20204;-77
2021/01/26 10:54:05;;;;;;;89.93;36.83;;;;;;;0.16;93.09;100287.19;4986251;28;20210;-77
2021/01/26 10:56:31;;;;;;;88.47;36.30;;;;;;;0.24;93.10;100297.59;4983089;28;20212;-77
2021/01/26 10:58:57;;;;;;;88.90;37.03;;;;;;;0.25;93.04;100300.19;4986507;28;20218;-77
2021/01/26 11:01:24;;;;;;;82.67;35.37;;;;;;;0.28;92.58;100305.41;4983854;28;20204;-77
2021/01/26 11:03:52;;;;;;;98.87;37.47;;;;;;;0.39;93.25;100303.91;4986656;28;20211;-78
2021/01/26 11:06:18;;;;;;;84.33;36.67;;;;;;;0.29;92.93;100311.41;4985720;28;20627;-75
2021/01/26 11:08:47;;;;;;;75.17;33.77;;;;;;;0.31;92.85;100313.16;4984813;28;20234;-77
2021/01/26 11:11:14;;;;;;;77.20;32.53;;;;;;;0.31;92.68;100318.28;4987124;28;20583;-78
2021/01/26 11:13:40;;;;;;;71.47;31.43;;;;;;;0.31;92.27;100320.84;4983961;28;20215;-78
2021/01/26 11:16:06;;;;;;;78.67;34.23;;;;;;;0.36;92.28;100320.97;4988027;28;20196;-78
2021/01/26 11:18:33;;;;;;;68.67;31.07;;;;;;;0.41;91.96;100324.47;4981399;28;20270;-79
2021/01/26 11:21:00;;;;;;;67.47;32.33;;;;;;;0.54;92.47;100317.91;4981207;28;20216;-79
2021/01/26 11:23:26;;;;;;;72.50;32.67;;;;;;;0.41;91.55;100323.63;4984049;28;20200;-79
2021/01/26 11:25:52;;;;;;;67.50;31.57;;;;;;;0.44;91.98;100333.94;4986758;28;20269;-79
2021/01/26 11:28:18;;;;;;;72.40;34.33;;;;;;;0.53;91.87;100329.84;4983312;28;20214;-78
2021/01/26 11:30:44;;;;;;;75.33;31.83;;;;;;;0.51;91.57;100339.22;4985794;28;20203;-77
2021/01/26 11:33:10;;;;;;;68.73;32.03;;;;;;;0.42;91.71;100328.81;4983678;28;20561;-78
2021/01/26 11:35:36;;;;;;;72.33;31.93;;;;;;;0.48;91.70;100333.19;4989083;28;20224;-77
2021/01/26 11:38:03;;;;;;;74.37;31.50;;;;;;;0.35;91.78;100338.06;4990272;28;20204;-77
2021/01/26 11:40:29;;;;;;;80.80;35.23;;;;;;;0.36;91.62;100341.50;4988078;28;20300;-77
2021/01/26 11:42:55;;;;;;;85.57;35.23;;;;;;;0.49;91.38;100347.75;4981676;28;20204;-77
2021/01/26 11:45:24;;;;;;;94.93;37.13;;;;;;;0.58;91.94;100348.81;4990250;28;20227;-78